sensor_id;sensor_type;location;lat;lon;timestamp;pressure;altitude;pressure_sealevel;temperature;humidity
54389;BME280;40975;50.390;8.640;2023-05-07T00:00:43;99105.19;;;13.36;100.00
54389;BME280;40975;50.390;8.640;2023-05-07T00:03:09;99107.34;;;13.33;100.00
54389;BME280;40975;50.390;8.640;2023-05-07T00:05:34;99110.69;;;13.27;100.00
54389;BME280;40975;50.390;8.640;2023-05-07T00:07:59;99110.84;;;13.25;100.00
54389;BME280;40975;50.390;8.640;2023-05-07T00:10:25;99095.84;;;13.16;100.00
54389;BME280;40975;50.390;8.640;2023-05-07T00:12:50;99096.69;;;13.16;100.00
54389;BME280;40975;50.390;8.640;2023-05-07T00:15:16;99102.81;;;13.09;100.00
54389;BME280;40975;50.390;8.640;2023-05-07T00:17:41;99104.31;;;13.03;100.00
54389;BME280;40975;50.390;8.640;2023-05-07T00:20:07;99094.13;;;12.98;100.00
54389;BME280;40975;50.390;8.640;2023-05-07T00:22:32;99103.63;;;13.01;100.00
54389;BME280;40975;50.390;8.640;2023-05-07T00:24:58;99102.13;;;12.98;100.00
54389;BME280;40975;50.390;8.640;2023-05-07T00:27:24;99097.47;;;13.00;100.00
54389;BME280;40975;50.390;8.640;2023-05-07T00:29:50;99104.78;;;12.98;100.00
54389;BME280;40975;50.390;8.640;2023-05-07T00:32:15;99096.13;;;12.96;100.00
54389;BME280;40975;50.390;8.640;2023-05-07T00:34:40;99093.47;;;12.96;100.00
54389;BME280;40975;50.390;8.640;2023-05-07T00:37:06;99093.28;;;12.98;100.00
54389;BME280;40975;50.390;8.640;2023-05-07T00:39:35;99106.59;;;12.89;100.00
54389;BME280;40975;50.390;8.640;2023-05-07T00:42:00;99104.59;;;12.83;100.00
54389;BME280;40975;50.390;8.640;2023-05-07T00:44:26;99095.91;;;12.81;100.00
54389;BME280;40975;50.390;8.640;2023-05-07T00:46:52;99096.59;;;12.83;100.00
54389;BME280;40975;50.390;8.640;2023-05-07T00:49:19;99089.59;;;12.82;100.00
54389;BME280;40975;50.390;8.640;2023-05-07T00:51:45;99097.28;;;12.85;100.00
54389;BME280;40975;50.390;8.640;2023-05-07T00:54:11;99098.25;;;12.84;100.00
54389;BME280;40975;50.390;8.640;2023-05-07T00:56:36;99082.44;;;12.83;100.00
54389;BME280;40975;50.390;8.640;2023-05-07T00:59:03;99090.09;;;12.78;100.00
54389;BME280;40975;50.390;8.640;2023-05-07T01:01:28;99079.59;;;12.76;100.00
54389;BME280;40975;50.390;8.640;2023-05-07T01:03:54;99088.41;;;12.77;100.00
54389;BME280;40975;50.390;8.640;2023-05-07T01:06:20;99084.59;;;12.79;100.00
54389;BME280;40975;50.390;8.640;2023-05-07T01:08:48;99088.25;;;12.78;100.00
54389;BME280;40975;50.390;8.640;2023-05-07T01:11:16;99088.41;;;12.77;100.00
54389;BME280;40975;50.390;8.640;2023-05-07T01:13:42;99073.78;;;12.72;100.00
54389;BME280;40975;50.390;8.640;2023-05-07T01:16:09;99083.75;;;12.79;100.00
54389;BME280;40975;50.390;8.640;2023-05-07T01:18:34;99076.47;;;12.81;100.00
54389;BME280;40975;50.390;8.640;2023-05-07T01:21:01;99076.47;;;12.81;100.00
54389;BME280;40975;50.390;8.640;2023-05-07T01:23:29;99086.59;;;12.77;100.00
54389;BME280;40975;50.390;8.640;2023-05-07T01:25:55;99071.44;;;12.78;100.00
54389;BME280;40975;50.390;8.640;2023-05-07T01:28:23;99088.78;;;12.82;100.00
54389;BME280;40975;50.390;8.640;2023-05-07T01:30:54;99089.09;;;12.79;100.00
54389;BME280;40975;50.390;8.640;2023-05-07T01:33:22;99093.25;;;12.81;100.00
54389;BME280;40975;50.390;8.640;2023-05-07T01:35:51;99084.09;;;12.84;100.00
54389;BME280;40975;50.390;8.640;2023-05-07T01:38:18;99091.28;;;12.83;100.00
54389;BME280;40975;50.390;8.640;2023-05-07T01:40:44;99085.44;;;12.80;100.00
54389;BME280;40975;50.390;8.640;2023-05-07T01:43:11;99091.75;;;12.79;100.00
54389;BME280;40975;50.390;8.640;2023-05-07T01:45:37;99076.25;;;12.74;100.00
54389;BME280;40975;50.390;8.640;2023-05-07T01:48:04;99086.44;;;12.79;100.00
54389;BME280;40975;50.390;8.640;2023-05-07T01:50:30;99080.25;;;12.78;100.00
54389;BME280;40975;50.390;8.640;2023-05-07T01:52:56;99072.09;;;12.71;100.00
54389;BME280;40975;50.390;8.640;2023-05-07T01:55:22;99063.94;;;12.73;100.00
54389;BME280;40975;50.390;8.640;2023-05-07T01:57:48;99077.09;;;12.74;100.00
54389;BME280;40975;50.390;8.640;2023-05-07T02:00:14;99073.91;;;12.71;100.00
54389;BME280;40975;50.390;8.640;2023-05-07T02:02:43;99069.75;;;12.68;100.00
54389;BME280;40975;50.390;8.640;2023-05-07T02:05:20;99069.06;;;12.66;100.00
54389;BME280;40975;50.390;8.640;2023-05-07T02:07:51;99071.22;;;12.63;100.00
54389;BME280;40975;50.390;8.640;2023-05-07T02:10:17;99076.72;;;12.61;100.00
54389;BME280;40975;50.390;8.640;2023-05-07T02:12:42;99070.03;;;12.57;100.00
54389;BME280;40975;50.390;8.640;2023-05-07T02:15:08;99076.53;;;12.54;100.00
54389;BME280;40975;50.390;8.640;2023-05-07T02:17:34;99074.00;;;12.53;100.00
54389;BME280;40975;50.390;8.640;2023-05-07T02:20:00;99076.84;;;12.51;100.00
54389;BME280;40975;50.390;8.640;2023-05-07T02:22:26;99077.00;;;12.50;100.00
54389;BME280;40975;50.390;8.640;2023-05-07T02:24:51;99076.66;;;12.53;100.00
54389;BME280;40975;50.390;8.640;2023-05-07T02:27:16;99078.19;;;12.55;100.00
54389;BME280;40975;50.390;8.640;2023-05-07T02:29:43;99077.03;;;12.58;100.00
54389;BME280;40975;50.390;8.640;2023-05-07T02:32:08;99089.00;;;12.54;100.00
54389;BME280;40975;50.390;8.640;2023-05-07T02:34:34;99084.50;;;12.54;100.00
54389;BME280;40975;50.390;8.640;2023-05-07T02:36:59;99080.00;;;12.55;100.00
54389;BME280;40975;50.390;8.640;2023-05-07T02:39:25;99081.84;;;12.54;100.00
54389;BME280;40975;50.390;8.640;2023-05-07T02:41:51;99079.69;;;12.58;100.00
54389;BME280;40975;50.390;8.640;2023-05-07T02:44:16;99092.00;;;12.51;100.00
54389;BME280;40975;50.390;8.640;2023-05-07T02:46:43;99089.81;;;12.46;100.00
54389;BME280;40975;50.390;8.640;2023-05-07T02:49:11;99087.47;;;12.43;100.00
54389;BME280;40975;50.390;8.640;2023-05-07T02:51:36;99088.63;;;12.40;100.00
54389;BME280;40975;50.390;8.640;2023-05-07T02:54:06;99090.59;;;12.38;100.00
54389;BME280;40975;50.390;8.640;2023-05-07T02:56:32;99091.41;;;12.39;100.00
54389;BME280;40975;50.390;8.640;2023-05-07T02:58:57;99086.56;;;12.34;100.00
54389;BME280;40975;50.390;8.640;2023-05-07T03:01:26;99088.59;;;12.32;100.00
54389;BME280;40975;50.390;8.640;2023-05-07T03:04:00;99085.06;;;12.32;100.00
54389;BME280;40975;50.390;8.640;2023-05-07T03:06:26;99085.25;;;12.30;100.00
54389;BME280;40975;50.390;8.640;2023-05-07T03:08:51;99090.56;;;12.30;100.00
54389;BME280;40975;50.390;8.640;2023-05-07T03:11:16;99087.38;;;12.26;100.00
54389;BME280;40975;50.390;8.640;2023-05-07T03:13:42;99077.06;;;12.23;100.00
54389;BME280;40975;50.390;8.640;2023-05-07T03:16:07;99085.03;;;12.23;100.00
54389;BME280;40975;50.390;8.640;2023-05-07T03:18:32;99076.16;;;12.15;100.00
54389;BME280;40975;50.390;8.640;2023-05-07T03:20:58;99083.16;;;12.16;100.00
54389;BME280;40975;50.390;8.640;2023-05-07T03:23:23;99082.84;;;12.19;100.00
54389;BME280;40975;50.390;8.640;2023-05-07T03:25:48;99087.31;;;12.18;100.00
54389;BME280;40975;50.390;8.640;2023-05-07T03:28:14;99079.34;;;12.18;100.00
54389;BME280;40975;50.390;8.640;2023-05-07T03:30:46;99078.16;;;12.12;100.00
54389;BME280;40975;50.390;8.640;2023-05-07T03:33:11;99077.47;;;12.10;100.00
54389;BME280;40975;50.390;8.640;2023-05-07T03:35:37;99067.31;;;12.06;100.00
54389;BME280;40975;50.390;8.640;2023-05-07T03:38:02;99081.13;;;12.09;100.00
54389;BME280;40975;50.390;8.640;2023-05-07T03:40:31;99076.97;;;12.07;100.00
54389;BME280;40975;50.390;8.640;2023-05-07T03:42:56;99071.66;;;12.07;100.00
54389;BME280;40975;50.390;8.640;2023-05-07T03:45:24;99071.09;;;12.03;100.00
54389;BME280;40975;50.390;8.640;2023-05-07T03:47:58;99072.13;;;12.02;100.00
54389;BME280;40975;50.390;8.640;2023-05-07T03:50:24;99079.56;;;11.98;100.00
54389;BME280;40975;50.390;8.640;2023-05-07T03:52:49;99075.66;;;11.93;100.00
54389;BME280;40975;50.390;8.640;2023-05-07T03:55:17;99073.34;;;11.90;100.00
54389;BME280;40975;50.390;8.640;2023-05-07T03:57:48;99077.66;;;11.91;100.00
54389;BME280;40975;50.390;8.640;2023-05-07T04:00:13;99076.81;;;11.90;100.00
54389;BME280;40975;50.390;8.640;2023-05-07T04:02:48;99068.16;;;11.88;100.00
54389;BME280;40975;50.390;8.640;2023-05-07T04:05:17;99074.31;;;11.89;100.00
54389;BME280;40975;50.390;8.640;2023-05-07T04:07:45;99074.50;;;11.87;100.00
54389;BME280;40975;50.390;8.640;2023-05-07T04:10:13;99076.47;;;11.85;100.00
54389;BME280;40975;50.390;8.640;2023-05-07T04:12:42;99075.41;;;11.78;100.00
54389;BME280;40975;50.390;8.640;2023-05-07T04:15:09;99084.22;;;11.78;100.00
54389;BME280;40975;50.390;8.640;2023-05-07T04:17:35;99056.72;;;11.70;100.00
54389;BME280;40975;50.390;8.640;2023-05-07T04:20:00;99076.03;;;11.72;100.00
54389;BME280;40975;50.390;8.640;2023-05-07T04:22:27;99084.69;;;11.74;100.00
54389;BME280;40975;50.390;8.640;2023-05-07T04:24:53;99094.00;;;11.78;100.00
54389;BME280;40975;50.390;8.640;2023-05-07T04:27:18;99085.03;;;11.79;100.00
54389;BME280;40975;50.390;8.640;2023-05-07T04:29:43;99091.97;;;11.72;100.00
54389;BME280;40975;50.390;8.640;2023-05-07T04:32:13;99095.63;;;11.71;100.00
54389;BME280;40975;50.390;8.640;2023-05-07T04:34:39;99086.97;;;11.69;100.00
54389;BME280;40975;50.390;8.640;2023-05-07T04:37:04;99090.78;;;11.66;100.00
54389;BME280;40975;50.390;8.640;2023-05-07T04:39:30;99091.28;;;11.70;100.00
54389;BME280;40975;50.390;8.640;2023-05-07T04:41:56;99090.81;;;11.74;100.00
54389;BME280;40975;50.390;8.640;2023-05-07T04:44:22;99084.16;;;11.70;100.00
54389;BME280;40975;50.390;8.640;2023-05-07T04:46:48;99094.34;;;11.75;100.00
54389;BME280;40975;50.390;8.640;2023-05-07T04:49:13;99099.66;;;11.75;100.00
54389;BME280;40975;50.390;8.640;2023-05-07T04:51:38;99102.38;;;11.83;100.00
54389;BME280;40975;50.390;8.640;2023-05-07T04:54:09;99106.22;;;11.89;100.00
54389;BME280;40975;50.390;8.640;2023-05-07T04:56:34;99110.56;;;11.90;100.00
54389;BME280;40975;50.390;8.640;2023-05-07T04:59:00;99111.34;;;12.00;100.00
54389;BME280;40975;50.390;8.640;2023-05-07T05:01:27;99115.84;;;12.08;100.00
54389;BME280;40975;50.390;8.640;2023-05-07T05:03:52;99118.88;;;12.13;100.00
54389;BME280;40975;50.390;8.640;2023-05-07T05:06:19;99119.78;;;12.22;100.00
54389;BME280;40975;50.390;8.640;2023-05-07T05:08:44;99129.50;;;12.31;100.00
54389;BME280;40975;50.390;8.640;2023-05-07T05:11:09;99126.50;;;12.34;100.00
54389;BME280;40975;50.390;8.640;2023-05-07T05:13:35;99130.22;;;12.41;100.00
54389;BME280;40975;50.390;8.640;2023-05-07T05:16:07;99140.84;;;12.41;100.00
54389;BME280;40975;50.390;8.640;2023-05-07T05:18:33;99143.38;;;12.51;100.00
54389;BME280;40975;50.390;8.640;2023-05-07T05:20:58;99139.25;;;12.57;100.00
54389;BME280;40975;50.390;8.640;2023-05-07T05:23:24;99143.78;;;12.65;100.00
54389;BME280;40975;50.390;8.640;2023-05-07T05:25:49;99144.81;;;12.72;100.00
54389;BME280;40975;50.390;8.640;2023-05-07T05:28:15;99140.50;;;12.79;100.00
54389;BME280;40975;50.390;8.640;2023-05-07T05:30:40;99143.53;;;12.84;100.00
54389;BME280;40975;50.390;8.640;2023-05-07T05:33:07;99151.72;;;12.91;100.00
54389;BME280;40975;50.390;8.640;2023-05-07T05:35:32;99140.25;;;12.99;100.00
54389;BME280;40975;50.390;8.640;2023-05-07T05:38:02;99154.09;;;13.02;100.00
54389;BME280;40975;50.390;8.640;2023-05-07T05:40:27;99149.78;;;13.01;100.00
54389;BME280;40975;50.390;8.640;2023-05-07T05:42:53;99152.59;;;13.08;100.00
54389;BME280;40975;50.390;8.640;2023-05-07T05:45:18;99143.78;;;13.07;100.00
54389;BME280;40975;50.390;8.640;2023-05-07T05:47:44;99140.00;;;13.27;100.00
54389;BME280;40975;50.390;8.640;2023-05-07T05:50:10;99151.19;;;13.38;100.00
54389;BME280;40975;50.390;8.640;2023-05-07T05:52:35;99146.38;;;13.42;100.00
54389;BME280;40975;50.390;8.640;2023-05-07T05:55:01;99151.22;;;13.63;100.00
54389;BME280;40975;50.390;8.640;2023-05-07T05:57:27;99155.41;;;13.74;100.00
54389;BME280;40975;50.390;8.640;2023-05-07T05:59:52;99154.41;;;13.92;100.00
54389;BME280;40975;50.390;8.640;2023-05-07T06:02:17;99161.75;;;14.06;100.00
54389;BME280;40975;50.390;8.640;2023-05-07T06:04:43;99165.91;;;14.17;100.00
54389;BME280;40975;50.390;8.640;2023-05-07T06:07:10;99164.56;;;14.29;100.00
54389;BME280;40975;50.390;8.640;2023-05-07T06:09:36;99161.19;;;14.36;100.00
54389;BME280;40975;50.390;8.640;2023-05-07T06:12:02;99167.34;;;14.53;100.00
54389;BME280;40975;50.390;8.640;2023-05-07T06:14:29;99172.16;;;14.57;100.00
54389;BME280;40975;50.390;8.640;2023-05-07T06:16:55;99168.81;;;14.72;100.00
54389;BME280;40975;50.390;8.640;2023-05-07T06:19:20;99180.47;;;14.79;100.00
54389;BME280;40975;50.390;8.640;2023-05-07T06:21:49;99171.75;;;14.85;100.00
54389;BME280;40975;50.390;8.640;2023-05-07T06:24:15;99172.72;;;14.92;100.00
54389;BME280;40975;50.390;8.640;2023-05-07T06:26:40;99169.91;;;14.94;100.00
54389;BME280;40975;50.390;8.640;2023-05-07T06:29:06;99164.19;;;15.05;100.00
54389;BME280;40975;50.390;8.640;2023-05-07T06:31:32;99174.09;;;15.20;100.00
54389;BME280;40975;50.390;8.640;2023-05-07T06:34:01;99168.31;;;15.08;100.00
54389;BME280;40975;50.390;8.640;2023-05-07T06:36:32;99176.31;;;15.16;100.00
54389;BME280;40975;50.390;8.640;2023-05-07T06:39:00;99179.50;;;15.12;100.00
54389;BME280;40975;50.390;8.640;2023-05-07T06:41:25;99183.88;;;15.36;100.00
54389;BME280;40975;50.390;8.640;2023-05-07T06:43:51;99184.63;;;15.76;100.00
54389;BME280;40975;50.390;8.640;2023-05-07T06:46:38;99187.44;;;16.06;100.00
54389;BME280;40975;50.390;8.640;2023-05-07T06:49:04;99181.31;;;16.51;100.00
54389;BME280;40975;50.390;8.640;2023-05-07T06:51:30;99192.69;;;16.83;100.00
54389;BME280;40975;50.390;8.640;2023-05-07T06:54:00;99190.00;;;17.49;100.00
54389;BME280;40975;50.390;8.640;2023-05-07T06:56:25;99185.81;;;17.62;100.00
54389;BME280;40975;50.390;8.640;2023-05-07T06:58:51;99185.41;;;17.43;100.00
54389;BME280;40975;50.390;8.640;2023-05-07T07:01:17;99191.50;;;17.37;100.00
54389;BME280;40975;50.390;8.640;2023-05-07T07:03:43;99197.66;;;17.16;100.00
54389;BME280;40975;50.390;8.640;2023-05-07T07:06:08;99194.16;;;17.30;100.00
54389;BME280;40975;50.390;8.640;2023-05-07T07:08:33;99196.38;;;17.27;100.00
54389;BME280;40975;50.390;8.640;2023-05-07T07:10:59;99193.81;;;17.03;100.00
54389;BME280;40975;50.390;8.640;2023-05-07T07:13:25;99198.22;;;17.26;100.00
54389;BME280;40975;50.390;8.640;2023-05-07T07:15:51;99203.97;;;17.08;100.00
54389;BME280;40975;50.390;8.640;2023-05-07T07:18:17;99199.34;;;17.17;100.00
54389;BME280;40975;50.390;8.640;2023-05-07T07:20:44;99194.59;;;17.34;100.00
54389;BME280;40975;50.390;8.640;2023-05-07T07:23:09;99199.84;;;17.42;100.00
54389;BME280;40975;50.390;8.640;2023-05-07T07:25:35;99195.91;;;17.81;100.00
54389;BME280;40975;50.390;8.640;2023-05-07T07:28:00;99202.75;;;17.84;99.88
54389;BME280;40975;50.390;8.640;2023-05-07T07:30:27;99202.25;;;18.17;99.84
54389;BME280;40975;50.390;8.640;2023-05-07T07:32:53;99203.66;;;18.41;97.97
54389;BME280;40975;50.390;8.640;2023-05-07T07:35:19;99194.31;;;18.30;94.66
54389;BME280;40975;50.390;8.640;2023-05-07T07:37:47;99197.16;;;18.29;91.71
54389;BME280;40975;50.390;8.640;2023-05-07T07:40:13;99203.50;;;18.49;89.44
54389;BME280;40975;50.390;8.640;2023-05-07T07:42:39;99204.13;;;18.23;89.77
54389;BME280;40975;50.390;8.640;2023-05-07T07:45:07;99198.88;;;18.37;91.69
54389;BME280;40975;50.390;8.640;2023-05-07T07:47:37;99208.69;;;18.23;90.43
54389;BME280;40975;50.390;8.640;2023-05-07T07:50:02;99206.88;;;18.30;90.27
54389;BME280;40975;50.390;8.640;2023-05-07T07:52:28;99205.16;;;18.22;91.33
54389;BME280;40975;50.390;8.640;2023-05-07T07:54:54;99196.88;;;18.17;89.67
54389;BME280;40975;50.390;8.640;2023-05-07T07:57:20;99199.25;;;18.05;90.67
54389;BME280;40975;50.390;8.640;2023-05-07T07:59:46;99207.75;;;18.09;91.17
54389;BME280;40975;50.390;8.640;2023-05-07T08:02:13;99207.81;;;17.94;88.24
54389;BME280;40975;50.390;8.640;2023-05-07T08:04:39;99210.38;;;18.02;89.24
54389;BME280;40975;50.390;8.640;2023-05-07T08:07:06;99210.41;;;18.30;89.98
54389;BME280;40975;50.390;8.640;2023-05-07T08:09:34;99201.47;;;18.23;88.30
54389;BME280;40975;50.390;8.640;2023-05-07T08:12:01;99203.13;;;18.53;88.14
54389;BME280;40975;50.390;8.640;2023-05-07T08:14:28;99200.34;;;18.11;84.50
54389;BME280;40975;50.390;8.640;2023-05-07T08:16:54;99204.69;;;18.40;85.67
54389;BME280;40975;50.390;8.640;2023-05-07T08:19:20;99195.78;;;18.68;84.31
54389;BME280;40975;50.390;8.640;2023-05-07T08:21:45;99201.22;;;18.82;82.86
54389;BME280;40975;50.390;8.640;2023-05-07T08:24:16;99195.34;;;18.93;80.04
54389;BME280;40975;50.390;8.640;2023-05-07T08:26:43;99196.06;;;18.80;80.91
54389;BME280;40975;50.390;8.640;2023-05-07T08:29:10;99195.97;;;19.02;83.38
54389;BME280;40975;50.390;8.640;2023-05-07T08:31:35;99200.41;;;19.16;82.16
54389;BME280;40975;50.390;8.640;2023-05-07T08:34:01;99193.59;;;19.27;83.07
54389;BME280;40975;50.390;8.640;2023-05-07T08:36:26;99191.16;;;19.39;81.63
54389;BME280;40975;50.390;8.640;2023-05-07T08:38:52;99199.88;;;19.41;83.32
54389;BME280;40975;50.390;8.640;2023-05-07T08:41:18;99192.41;;;19.36;81.28
54389;BME280;40975;50.390;8.640;2023-05-07T08:43:48;99197.84;;;19.63;80.72
54389;BME280;40975;50.390;8.640;2023-05-07T08:46:19;99197.91;;;20.17;79.13
54389;BME280;40975;50.390;8.640;2023-05-07T08:48:48;99188.97;;;20.70;75.05
54389;BME280;40975;50.390;8.640;2023-05-07T08:51:16;99189.06;;;21.09;72.73
54389;BME280;40975;50.390;8.640;2023-05-07T08:53:42;99200.44;;;21.63;72.84
54389;BME280;40975;50.390;8.640;2023-05-07T08:56:11;99189.91;;;22.44;67.92
54389;BME280;40975;50.390;8.640;2023-05-07T08:58:36;99191.13;;;23.04;64.71
54389;BME280;40975;50.390;8.640;2023-05-07T09:01:08;99203.69;;;24.09;62.08
54389;BME280;40975;50.390;8.640;2023-05-07T09:03:34;99193.72;;;25.21;58.86
54389;BME280;40975;50.390;8.640;2023-05-07T09:06:00;99198.97;;;25.40;55.88
54389;BME280;40975;50.390;8.640;2023-05-07T09:08:27;99212.31;;;26.33;54.67
54389;BME280;40975;50.390;8.640;2023-05-07T09:10:55;99224.41;;;26.99;52.47
54389;BME280;40975;50.390;8.640;2023-05-07T09:13:21;99214.19;;;26.50;51.46
54389;BME280;40975;50.390;8.640;2023-05-07T09:15:47;99211.56;;;26.94;51.07
54389;BME280;40975;50.390;8.640;2023-05-07T09:18:13;99214.03;;;26.22;49.40
54389;BME280;40975;50.390;8.640;2023-05-07T09:20:40;99207.75;;;26.05;52.62
54389;BME280;40975;50.390;8.640;2023-05-07T09:23:07;99212.56;;;26.15;52.16
54389;BME280;40975;50.390;8.640;2023-05-07T09:25:34;99203.25;;;26.84;48.90
54389;BME280;40975;50.390;8.640;2023-05-07T09:28:05;99210.41;;;27.57;48.49
54389;BME280;40975;50.390;8.640;2023-05-07T09:30:36;99206.59;;;26.91;50.81
54389;BME280;40975;50.390;8.640;2023-05-07T09:33:03;99207.94;;;26.72;47.72
54389;BME280;40975;50.390;8.640;2023-05-07T09:35:30;99206.41;;;27.20;48.72
54389;BME280;40975;50.390;8.640;2023-05-07T09:38:00;99208.56;;;27.40;46.57
54389;BME280;40975;50.390;8.640;2023-05-07T09:40:28;99216.69;;;26.74;49.12
54389;BME280;40975;50.390;8.640;2023-05-07T09:42:56;99208.22;;;25.85;52.46
54389;BME280;40975;50.390;8.640;2023-05-07T09:45:25;99202.53;;;26.03;55.08
54389;BME280;40975;50.390;8.640;2023-05-07T09:47:54;99211.81;;;26.53;52.28
54389;BME280;40975;50.390;8.640;2023-05-07T09:50:22;99201.41;;;26.50;50.47
54389;BME280;40975;50.390;8.640;2023-05-07T09:52:51;99203.66;;;27.15;48.04
54389;BME280;40975;50.390;8.640;2023-05-07T09:55:17;99202.38;;;27.45;48.25
54389;BME280;40975;50.390;8.640;2023-05-07T09:57:44;99201.94;;;28.13;46.68
54389;BME280;40975;50.390;8.640;2023-05-07T10:00:11;99209.41;;;27.68;49.96
54389;BME280;40975;50.390;8.640;2023-05-07T10:02:50;99203.78;;;27.25;52.81
54389;BME280;40975;50.390;8.640;2023-05-07T10:05:21;99211.63;;;26.99;48.97
54389;BME280;40975;50.390;8.640;2023-05-07T10:07:48;99208.63;;;27.23;54.61
54389;BME280;40975;50.390;8.640;2023-05-07T10:10:15;99205.41;;;28.03;49.47
54389;BME280;40975;50.390;8.640;2023-05-07T10:12:44;99210.09;;;27.81;52.12
54389;BME280;40975;50.390;8.640;2023-05-07T10:15:23;99206.41;;;27.42;52.86
54389;BME280;40975;50.390;8.640;2023-05-07T10:17:53;99200.78;;;27.05;50.90
54389;BME280;40975;50.390;8.640;2023-05-07T10:20:19;99208.66;;;26.79;55.70
54389;BME280;40975;50.390;8.640;2023-05-07T10:22:47;99207.91;;;27.06;53.22
54389;BME280;40975;50.390;8.640;2023-05-07T10:25:22;99207.69;;;27.35;49.52
54389;BME280;40975;50.390;8.640;2023-05-07T10:27:50;99205.03;;;27.95;51.59
54389;BME280;40975;50.390;8.640;2023-05-07T10:30:26;99209.72;;;28.32;49.73
54389;BME280;40975;50.390;8.640;2023-05-07T10:32:56;99215.84;;;28.12;50.39
54389;BME280;40975;50.390;8.640;2023-05-07T10:35:32;99207.97;;;28.15;49.60
54389;BME280;40975;50.390;8.640;2023-05-07T10:38:03;99204.69;;;27.36;51.48
54389;BME280;40975;50.390;8.640;2023-05-07T10:40:31;99211.78;;;27.87;51.17
54389;BME280;40975;50.390;8.640;2023-05-07T10:43:02;99212.31;;;26.90;51.36
54389;BME280;40975;50.390;8.640;2023-05-07T10:45:34;99211.38;;;26.62;53.88
54389;BME280;40975;50.390;8.640;2023-05-07T10:48:12;99206.16;;;26.77;53.86
54389;BME280;40975;50.390;8.640;2023-05-07T10:50:47;99210.63;;;25.98;54.58
54389;BME280;40975;50.390;8.640;2023-05-07T10:55:44;99199.22;;;25.67;55.33
54389;BME280;40975;50.390;8.640;2023-05-07T11:00:50;99205.50;;;25.85;56.76
54389;BME280;40975;50.390;8.640;2023-05-07T11:03:24;99206.34;;;25.85;57.81
54389;BME280;40975;50.390;8.640;2023-05-07T11:06:12;99203.34;;;25.41;55.74
54389;BME280;40975;50.390;8.640;2023-05-07T11:08:57;99192.50;;;25.41;56.30
54389;BME280;40975;50.390;8.640;2023-05-07T11:11:47;99189.19;;;24.86;56.09
54389;BME280;40975;50.390;8.640;2023-05-07T11:17:15;99185.78;;;24.43;60.00
54389;BME280;40975;50.390;8.640;2023-05-07T11:19:48;99186.47;;;24.86;58.74
54389;BME280;40975;50.390;8.640;2023-05-07T11:22:36;99191.44;;;24.18;61.92
54389;BME280;40975;50.390;8.640;2023-05-07T11:25:10;99186.25;;;23.74;61.92
54389;BME280;40975;50.390;8.640;2023-05-07T11:27:36;99192.72;;;23.31;62.30
54389;BME280;40975;50.390;8.640;2023-05-07T11:30:01;99187.66;;;22.97;65.42
54389;BME280;40975;50.390;8.640;2023-05-07T11:32:29;99181.56;;;23.02;65.22
54389;BME280;40975;50.390;8.640;2023-05-07T11:34:56;99184.88;;;23.22;63.04
54389;BME280;40975;50.390;8.640;2023-05-07T11:37:23;99185.53;;;23.18;62.73
54389;BME280;40975;50.390;8.640;2023-05-07T11:40:09;99186.81;;;23.34;65.02
54389;BME280;40975;50.390;8.640;2023-05-07T11:42:37;99184.09;;;23.34;62.71
54389;BME280;40975;50.390;8.640;2023-05-07T11:45:03;99187.25;;;23.49;63.79
54389;BME280;40975;50.390;8.640;2023-05-07T11:47:33;99183.84;;;23.96;62.56
54389;BME280;40975;50.390;8.640;2023-05-07T11:50:03;99178.94;;;24.17;64.53
54389;BME280;40975;50.390;8.640;2023-05-07T11:52:29;99179.88;;;23.99;62.12
54389;BME280;40975;50.390;8.640;2023-05-07T11:54:56;99172.69;;;24.28;63.01
54389;BME280;40975;50.390;8.640;2023-05-07T11:57:25;99180.31;;;23.96;59.72
54389;BME280;40975;50.390;8.640;2023-05-07T11:59:57;99180.69;;;23.99;64.17
54389;BME280;40975;50.390;8.640;2023-05-07T12:02:24;99170.56;;;24.30;62.07
54389;BME280;40975;50.390;8.640;2023-05-07T12:04:53;99166.56;;;24.45;64.76
54389;BME280;40975;50.390;8.640;2023-05-07T12:07:18;99169.53;;;24.19;62.03
54389;BME280;40975;50.390;8.640;2023-05-07T12:09:45;99173.22;;;23.83;60.83
54389;BME280;40975;50.390;8.640;2023-05-07T12:12:10;99161.22;;;23.48;59.98
54389;BME280;40975;50.390;8.640;2023-05-07T12:14:40;99170.16;;;23.49;59.92
54389;BME280;40975;50.390;8.640;2023-05-07T12:17:07;99167.31;;;23.43;59.78
54389;BME280;40975;50.390;8.640;2023-05-07T12:19:34;99166.03;;;23.88;63.18
54389;BME280;40975;50.390;8.640;2023-05-07T12:22:01;99170.97;;;23.91;64.42
54389;BME280;40975;50.390;8.640;2023-05-07T12:24:27;99166.16;;;23.94;64.10
54389;BME280;40975;50.390;8.640;2023-05-07T12:26:52;99162.22;;;23.66;61.34
54389;BME280;40975;50.390;8.640;2023-05-07T12:29:21;99163.84;;;23.55;59.96
54389;BME280;40975;50.390;8.640;2023-05-07T12:31:47;99161.81;;;23.50;63.18
54389;BME280;40975;50.390;8.640;2023-05-07T12:34:15;99167.13;;;23.57;65.86
54389;BME280;40975;50.390;8.640;2023-05-07T12:36:40;99157.66;;;23.48;61.91
54389;BME280;40975;50.390;8.640;2023-05-07T12:39:07;99162.09;;;23.72;65.44
54389;BME280;40975;50.390;8.640;2023-05-07T12:44:22;99147.47;;;24.04;59.61
54389;BME280;40975;50.390;8.640;2023-05-07T12:46:48;99150.88;;;24.11;60.86
54389;BME280;40975;50.390;8.640;2023-05-07T12:49:13;99145.50;;;23.81;56.27
54389;BME280;40975;50.390;8.640;2023-05-07T12:51:38;99140.78;;;23.64;57.50
54389;BME280;40975;50.390;8.640;2023-05-07T12:54:04;99147.69;;;24.02;56.55
54389;BME280;40975;50.390;8.640;2023-05-07T12:56:35;99141.16;;;23.80;56.27
54389;BME280;40975;50.390;8.640;2023-05-07T12:59:01;99138.78;;;23.71;57.38
54389;BME280;40975;50.390;8.640;2023-05-07T13:01:30;99140.56;;;23.78;59.84
54389;BME280;40975;50.390;8.640;2023-05-07T13:04:02;99129.09;;;23.52;54.56
54389;BME280;40975;50.390;8.640;2023-05-07T13:06:29;99123.09;;;23.62;55.71